Time;durP1;ratioP1;P1;durP2;ratioP2;P2;SDS_P1;SDS_P2;PMS_P1;PMS_P2;Temp;Humidity;BMP_temperature;BMP_pressure;BME280_temperature;BME280_humidity;BME280_pressure;Samples;Min_cycle;Max_cycle;Signal;HPM_P1;HPM_P2
2023/03/31 00:01:12;;;;;;;5.55;1.70;;;;;;;14.38;57.96;100332.34;4957600;28;123855;-72
2023/03/31 00:03:42;;;;;;;6.32;1.83;;;;;;;14.40;57.81;100333.09;4957442;28;114642;-73
2023/03/31 00:06:16;;;;;;;5.53;1.70;;;;;;;14.43;57.95;100324.03;4965181;28;114453;-74
2023/03/31 00:08:50;;;;;;;8.17;1.90;;;;;;;14.45;58.02;100322.97;4959864;28;123881;-72
2023/03/31 00:11:21;;;;;;;6.22;1.60;;;;;;;14.47;57.93;100315.72;4958517;28;124224;-72
2023/03/31 00:13:49;;;;;;;6.70;1.98;;;;;;;14.49;58.15;100308.47;4962243;28;114221;-73
2023/03/31 00:16:17;;;;;;;9.35;2.72;;;;;;;14.51;58.13;100306.56;4959175;28;114267;-73
2023/03/31 00:18:46;;;;;;;4.95;1.80;;;;;;;14.52;58.07;100305.59;4966956;28;123342;-73
2023/03/31 00:21:28;;;;;;;5.43;2.00;;;;;;;14.53;58.14;100299.28;4961919;28;124149;-72
2023/03/31 00:24:01;;;;;;;3.97;1.75;;;;;;;14.53;58.09;100298.44;4970040;28;114229;-72
2023/03/31 00:26:29;;;;;;;8.57;2.15;;;;;;;14.55;58.15;100297.38;4953504;28;114650;-73
2023/03/31 00:28:57;;;;;;;6.18;1.80;;;;;;;14.55;58.25;100292.03;4966011;28;124600;-73
2023/03/31 00:31:26;;;;;;;5.28;1.92;;;;;;;14.56;58.36;100292.88;4943508;28;124138;-73
2023/03/31 00:33:54;;;;;;;6.75;2.55;;;;;;;14.57;58.41;100290.16;4966033;28;113384;-73
2023/03/31 00:36:28;;;;;;;7.78;2.10;;;;;;;14.57;58.46;100292.81;4966679;28;114445;-73
2023/03/31 00:38:58;;;;;;;11.23;2.67;;;;;;;14.58;58.37;100275.88;4958645;28;124077;-73
2023/03/31 00:41:29;;;;;;;9.05;2.05;;;;;;;14.59;58.65;100266.06;4960608;28;124620;-74
2023/03/31 00:44:12;;;;;;;7.97;2.15;;;;;;;14.60;58.58;100267.78;4965603;28;115581;-73
2023/03/31 00:46:51;;;;;;;8.45;1.92;;;;;;;14.59;58.74;100256.25;4949958;28;114126;-73
2023/03/31 00:49:26;;;;;;;5.65;2.30;;;;;;;14.58;58.82;100243.91;4964878;28;124223;-73
2023/03/31 00:51:58;;;;;;;7.97;2.40;;;;;;;14.57;58.74;100234.19;4954934;28;123736;-73
2023/03/31 00:54:27;;;;;;;6.95;1.70;;;;;;;14.57;58.86;100223.53;4946485;28;114071;-73
2023/03/31 00:56:57;;;;;;;7.32;1.67;;;;;;;14.57;58.86;100218.19;4966430;28;113739;-73
2023/03/31 00:59:28;;;;;;;7.95;1.80;;;;;;;14.56;58.99;100216.47;4964409;28;124605;-73
2023/03/31 01:02:01;;;;;;;6.70;1.80;;;;;;;14.56;58.96;100208.47;4951742;28;122743;-73
2023/03/31 01:04:43;;;;;;;5.50;1.80;;;;;;;14.55;59.01;100206.75;4964265;28;115153;-73
2023/03/31 01:07:21;;;;;;;8.93;1.90;;;;;;;14.53;59.22;100203.38;4962028;28;115009;-73
2023/03/31 01:09:53;;;;;;;8.27;1.67;;;;;;;14.53;59.06;100191.88;4963522;28;124617;-73
2023/03/31 01:12:22;;;;;;;7.63;1.58;;;;;;;14.53;59.29;100192.69;4964162;28;124237;-73
2023/03/31 01:14:50;;;;;;;6.30;1.80;;;;;;;14.53;59.19;100192.69;4942922;28;113656;-73
2023/03/31 01:17:20;;;;;;;4.60;1.52;;;;;;;14.54;59.42;100188.22;4960722;28;114008;-73
2023/03/31 01:20:13;;;;;;;6.75;2.00;;;;;;;14.55;59.22;100187.28;4962149;28;124069;-73
2023/03/31 01:23:05;;;;;;;4.72;2.08;;;;;;;14.53;59.24;100182.03;4959070;28;124228;-74
2023/03/31 01:25:55;;;;;;;6.00;2.03;;;;;;;14.51;59.40;100170.66;4954253;28;113484;-74
2023/03/31 01:28:26;;;;;;;8.20;1.98;;;;;;;14.51;59.28;100162.66;4960040;28;114035;-74
2023/03/31 01:30:56;;;;;;;5.07;1.60;;;;;;;14.50;59.32;100160.09;4942265;28;123477;-74
2023/03/31 01:33:45;;;;;;;9.90;1.80;;;;;;;14.49;59.34;100153.94;4965249;28;123063;-73
2023/03/31 01:36:41;;;;;;;7.72;1.48;;;;;;;14.49;59.32;100148.59;4957186;28;115003;-74
2023/03/31 01:39:43;;;;;;;6.47;1.50;;;;;;;14.47;59.42;100144.34;4953315;28;113619;-74
2023/03/31 01:42:22;;;;;;;5.82;1.60;;;;;;;14.46;59.44;100138.16;4961888;28;123139;-74
2023/03/31 01:45:11;;;;;;;4.18;1.60;;;;;;;14.46;59.60;100132.81;4959845;28;124241;-73
2023/03/31 01:47:47;;;;;;;6.45;1.42;;;;;;;14.46;59.85;100127.50;4964293;28;114622;-74
2023/03/31 01:50:27;;;;;;;8.20;1.73;;;;;;;14.46;59.61;100127.50;4959235;28;114097;-73
2023/03/31 01:53:19;;;;;;;6.65;1.63;;;;;;;14.46;59.63;100111.50;4962862;28;124642;-74
2023/03/31 01:56:20;;;;;;;6.35;1.38;;;;;;;14.45;59.81;100115.16;4950890;28;123969;-73
2023/03/31 01:59:00;;;;;;;5.13;1.40;;;;;;;14.45;59.69;100115.16;4948913;28;113438;-73
2023/03/31 02:01:41;;;;;;;6.60;1.75;;;;;;;14.43;59.88;100106.41;4945051;28;113959;-74
2023/03/31 02:04:15;;;;;;;5.97;1.80;;;;;;;14.42;59.88;100104.69;4964112;28;124790;-73
2023/03/31 02:06:52;;;;;;;7.03;1.55;;;;;;;14.41;60.08;100087.03;4957209;28;123936;-74
2023/03/31 02:09:23;;;;;;;9.60;2.03;;;;;;;14.42;60.05;100083.38;4947065;28;113044;-74
2023/03/31 02:11:55;;;;;;;9.35;2.00;;;;;;;14.41;60.10;100079.03;4941524;28;112990;-74
2023/03/31 02:14:27;;;;;;;8.15;2.10;;;;;;;14.39;60.18;100065.84;4948121;28;123863;-74
2023/03/31 02:17:01;;;;;;;7.53;1.80;;;;;;;14.41;60.32;100065.72;4961185;28;124389;-73
2023/03/31 02:19:52;;;;;;;7.75;1.83;;;;;;;14.41;60.19;100060.41;4950259;28;115008;-73
2023/03/31 02:22:25;;;;;;;11.23;1.92;;;;;;;14.45;60.12;100045.00;4934879;23;115010;-81
2023/03/31 02:24:54;;;;;;;12.38;2.20;;;;;;;14.46;60.36;100036.91;4922357;28;124945;-81
2023/03/31 02:27:27;;;;;;;9.85;1.90;;;;;;;14.47;60.42;100033.28;4924747;28;126117;-80
2023/03/31 02:29:55;;;;;;;11.07;2.42;;;;;;;14.49;60.24;100023.38;4932830;28;114388;-81
2023/03/31 02:32:34;;;;;;;10.02;1.80;;;;;;;14.50;60.31;100017.06;4929200;28;114419;-81
2023/03/31 02:35:03;;;;;;;8.77;2.28;;;;;;;14.50;60.35;100005.56;4963263;28;124032;-82
2023/03/31 02:37:30;;;;;;;12.57;2.55;;;;;;;14.49;60.51;99999.38;4952336;28;123029;-82
2023/03/31 02:40:03;;;;;;;11.20;2.50;;;;;;;14.50;60.40;99987.75;4965751;28;114092;-82
2023/03/31 02:42:31;;;;;;;4.97;1.73;;;;;;;14.51;60.46;99970.81;4944340;28;114371;-82
2023/03/31 02:45:05;;;;;;;11.13;2.10;;;;;;;14.51;60.73;99965.47;4946944;28;124313;-81
2023/03/31 02:47:33;;;;;;;12.48;2.35;;;;;;;14.52;60.53;99967.19;4928947;28;123922;-82
2023/03/31 02:50:02;;;;;;;12.45;2.10;;;;;;;14.53;60.63;99952.88;4928789;28;115089;-82
2023/03/31 02:53:28;;;;;;;7.97;2.20;;;;;;;14.53;60.44;99947.56;4944588;28;116211;-82
2023/03/31 02:56:32;;;;;;;12.65;2.35;;;;;;;14.52;60.43;99945.88;4863776;28;123705;-81
2023/03/31 02:59:20;;;;;;;10.07;2.10;;;;;;;14.51;60.60;99933.50;4940406;28;125228;-81
2023/03/31 03:01:58;;;;;;;11.05;2.65;;;;;;;14.51;60.53;99922.84;4948859;28;114204;-81
2023/03/31 03:04:53;;;;;;;11.45;2.65;;;;;;;14.49;60.45;99916.78;4939280;28;113525;-81
2023/03/31 03:07:44;;;;;;;9.93;2.53;;;;;;;14.49;60.41;99911.47;4929711;28;125422;-81
2023/03/31 03:10:18;;;;;;;15.52;2.30;;;;;;;14.49;60.69;99908.78;4909545;28;123020;-81
2023/03/31 03:12:48;;;;;;;13.70;2.28;;;;;;;14.48;60.62;99885.75;4941840;28;115102;-80
2023/03/31 03:15:23;;;;;;;9.25;2.42;;;;;;;14.48;60.74;99885.75;4928764;28;113332;-80
2023/03/31 03:17:52;;;;;;;12.18;2.65;;;;;;;14.50;60.73;99875.84;4926050;28;124013;-81
2023/03/31 03:20:20;;;;;;;14.32;2.50;;;;;;;14.50;60.68;99873.19;4919862;28;122121;-81
2023/03/31 03:22:48;;;;;;;9.18;2.55;;;;;;;14.51;60.69;99871.38;4936481;28;113952;-81
2023/03/31 03:25:17;;;;;;;11.90;2.80;;;;;;;14.51;60.69;99869.56;4934903;28;115891;-82
2023/03/31 03:27:44;;;;;;;11.75;2.63;;;;;;;14.51;60.78;99852.72;4944468;28;123301;-81
2023/03/31 03:30:12;;;;;;;9.45;2.28;;;;;;;14.50;60.80;99841.19;4929316;28;123741;-80
2023/03/31 03:32:40;;;;;;;11.27;2.60;;;;;;;14.50;60.44;99838.53;4915635;28;114977;-80
2023/03/31 03:35:08;;;;;;;10.05;2.50;;;;;;;14.51;60.95;99847.41;4936473;28;112325;-81
2023/03/31 03:37:35;;;;;;;8.93;2.35;;;;;;;14.50;60.82;99854.53;4926381;28;124035;-81
2023/03/31 03:40:07;;;;;;;12.43;2.78;;;;;;;14.51;60.92;99848.25;4932235;28;123854;-81
2023/03/31 03:42:34;;;;;;;9.85;2.40;;;;;;;14.51;60.78;99844.72;4941724;28;115110;-81
2023/03/31 03:45:01;;;;;;;11.07;2.50;;;;;;;14.51;60.96;99847.41;4940791;28;113894;-81
2023/03/31 03:47:28;;;;;;;16.05;3.03;;;;;;;14.51;60.94;99832.25;4939087;28;125080;-81
2023/03/31 03:49:55;;;;;;;10.30;2.13;;;;;;;14.51;60.95;99837.59;4915610;28;123057;-81
2023/03/31 03:52:23;;;;;;;10.20;2.10;;;;;;;14.50;60.85;99829.69;4927585;28;115291;-80
2023/03/31 03:54:50;;;;;;;9.77;2.17;;;;;;;14.48;61.00;99835.16;4934088;28;113387;-81
2023/03/31 03:57:17;;;;;;;10.82;2.30;;;;;;;14.48;60.97;99832.47;4917078;28;126209;-81
2023/03/31 03:59:44;;;;;;;11.40;2.38;;;;;;;14.47;60.91;99809.50;4930553;28;123882;-81
2023/03/31 04:02:11;;;;;;;9.13;2.03;;;;;;;14.47;60.90;99798.84;4953661;28;114318;-81
2023/03/31 04:04:38;;;;;;;8.68;1.90;;;;;;;14.46;60.94;99786.47;4939670;28;113736;-81
2023/03/31 04:07:05;;;;;;;11.68;2.25;;;;;;;14.44;60.95;99783.06;4929344;28;123971;-81
2023/03/31 04:09:33;;;;;;;10.35;2.28;;;;;;;14.45;61.14;99789.25;4916687;28;125405;-81
2023/03/31 04:12:00;;;;;;;11.68;2.15;;;;;;;14.44;61.02;99777.75;4934674;28;115212;-82
2023/03/31 04:14:27;;;;;;;9.15;2.13;;;;;;;14.41;61.03;99762.03;4922344;28;116005;-82
2023/03/31 04:16:55;;;;;;;7.70;1.90;;;;;;;14.41;60.92;99751.38;4927717;28;122938;-83
2023/03/31 04:19:24;;;;;;;12.25;2.55;;;;;;;14.40;61.02;99754.97;4931889;28;124078;-82
2023/03/31 04:21:57;;;;;;;8.63;1.90;;;;;;;14.39;61.07;99742.63;4940663;28;114828;-81
2023/03/31 04:24:29;;;;;;;12.88;2.45;;;;;;;14.37;60.96;99734.78;4938218;28;114629;-82
2023/03/31 04:26:57;;;;;;;12.27;2.15;;;;;;;14.37;61.22;99739.22;4948455;28;123973;-83
2023/03/31 04:29:27;;;;;;;10.40;2.50;;;;;;;14.36;61.20;99721.56;4953580;28;124799;-82
2023/03/31 04:31:57;;;;;;;10.57;2.28;;;;;;;14.35;61.00;99715.41;4932972;28;114199;-82
2023/03/31 04:34:33;;;;;;;13.23;2.08;;;;;;;14.36;61.24;99710.91;4920540;28;113163;-83
2023/03/31 04:37:01;;;;;;;10.82;2.70;;;;;;;14.35;61.25;99709.22;4946277;28;124538;-82
2023/03/31 04:39:29;;;;;;;11.90;2.58;;;;;;;14.35;61.25;99693.22;4938294;28;122704;-82
2023/03/31 04:41:58;;;;;;;11.35;2.67;;;;;;;14.35;61.11;99682.56;4937362;28;114573;-83
2023/03/31 04:44:26;;;;;;;11.52;2.05;;;;;;;14.34;61.34;99687.06;4925034;28;114655;-82
2023/03/31 04:46:53;;;;;;;10.15;2.17;;;;;;;14.36;61.23;99678.94;4936581;28;123109;-82
2023/03/31 04:49:21;;;;;;;7.72;2.38;;;;;;;14.36;61.22;99678.94;4944286;28;123680;-83
2023/03/31 04:51:48;;;;;;;8.45;2.13;;;;;;;14.35;61.16;99661.25;4930286;28;114826;-83
2023/03/31 04:54:16;;;;;;;9.10;2.00;;;;;;;14.33;61.11;99657.88;4949929;28;114370;-82
2023/03/31 04:56:43;;;;;;;8.15;2.15;;;;;;;14.32;61.23;99651.72;4948495;28;124259;-83
2023/03/31 04:59:10;;;;;;;9.70;1.95;;;;;;;14.32;61.14;99648.22;4930032;28;125716;-82
2023/03/31 05:01:37;;;;;;;9.10;2.10;;;;;;;14.31;61.39;99654.50;4931270;28;114417;-82
2023/03/31 05:04:05;;;;;;;10.88;2.05;;;;;;;14.31;61.24;99643.84;4932466;28;115259;-82
2023/03/31 05:06:32;;;;;;;9.45;2.08;;;;;;;14.30;61.26;99639.50;4928802;28;124397;-82
2023/03/31 05:09:00;;;;;;;10.70;2.10;;;;;;;14.30;61.27;99631.50;4934169;28;122248;-81
2023/03/31 05:11:27;;;;;;;8.00;1.98;;;;;;;14.29;61.02;99619.16;4945329;28;114128;-83
2023/03/31 05:13:55;;;;;;;14.00;2.55;;;;;;;14.28;61.32;99622.75;4918912;28;116065;-85
2023/03/31 05:16:22;;;;;;;8.45;2.10;;;;;;;14.28;61.08;99622.75;4934759;28;125471;-81
2023/03/31 05:18:49;;;;;;;6.45;1.73;;;;;;;14.27;61.26;99610.44;4930503;28;123144;-83
2023/03/31 05:21:20;;;;;;;7.18;2.08;;;;;;;14.26;61.22;99611.38;4946942;28;114300;-82
2023/03/31 05:23:48;;;;;;;12.85;1.90;;;;;;;14.26;61.24;99608.72;4935818;28;113865;-82
2023/03/31 05:26:15;;;;;;;6.20;1.80;;;;;;;14.25;61.23;99601.72;4933621;28;124281;-83
2023/03/31 05:28:43;;;;;;;8.68;1.83;;;;;;;14.25;61.30;99604.38;4946132;28;123429;-80
2023/03/31 05:31:11;;;;;;;4.68;1.67;;;;;;;14.23;61.11;99598.34;4928806;28;113287;-80
2023/03/31 05:33:40;;;;;;;9.73;1.70;;;;;;;14.20;61.21;99588.75;4949973;28;115063;-80
2023/03/31 05:36:10;;;;;;;6.30;1.95;;;;;;;14.18;61.18;99582.72;4950395;28;124160;-79
2023/03/31 05:38:38;;;;;;;8.80;1.65;;;;;;;14.16;61.15;99577.50;4922439;28;124798;-80
2023/03/31 05:41:08;;;;;;;5.63;1.58;;;;;;;14.16;61.19;99574.84;4936013;28;115606;-80
2023/03/31 05:43:36;;;;;;;5.25;1.50;;;;;;;14.14;61.26;99568.81;4937575;28;113935;-80
2023/03/31 05:46:05;;;;;;;8.65;1.70;;;;;;;14.15;61.16;99567.84;4954631;28;124009;-80
2023/03/31 05:48:33;;;;;;;4.68;1.50;;;;;;;14.14;61.39;99558.16;4917864;28;124111;-79
2023/03/31 05:51:01;;;;;;;5.53;1.52;;;;;;;14.15;61.16;99562.53;4922126;28;115177;-79
2023/03/31 05:53:29;;;;;;;5.38;1.70;;;;;;;14.14;61.30;99552.81;4948149;28;115302;-79
2023/03/31 05:56:01;;;;;;;5.75;1.30;;;;;;;14.14;61.30;99546.66;4946757;28;124575;-79
2023/03/31 05:58:29;;;;;;;3.65;1.42;;;;;;;14.13;61.11;99543.16;4926270;28;124445;-79
2023/03/31 06:01:21;;;;;;;3.95;1.25;;;;;;;14.12;61.21;99552.09;4944207;28;115112;-79
2023/03/31 06:03:49;;;;;;;4.63;1.60;;;;;;;14.12;61.27;99541.44;4939691;28;115115;-79
2023/03/31 06:06:17;;;;;;;6.15;1.70;;;;;;;14.12;61.24;99538.78;4946752;28;124629;-79
2023/03/31 06:08:46;;;;;;;4.00;1.52;;;;;;;14.12;61.31;99541.44;4949126;28;124701;-79
2023/03/31 06:11:18;;;;;;;5.72;1.67;;;;;;;14.13;61.44;99540.50;4935666;28;114630;-79
2023/03/31 06:13:46;;;;;;;7.90;1.70;;;;;;;14.14;61.44;99547.50;4938537;28;114794;-79
2023/03/31 06:16:15;;;;;;;6.63;1.38;;;;;;;14.14;61.54;99544.84;4941539;28;123665;-78
2023/03/31 06:18:43;;;;;;;5.50;1.40;;;;;;;14.15;61.58;99535.88;4939647;28;124909;-79
2023/03/31 06:21:16;;;;;;;6.20;1.58;;;;;;;14.17;61.48;99533.94;4943731;28;113903;-80
2023/03/31 06:23:44;;;;;;;6.78;1.33;;;;;;;14.20;61.42;99541.69;4953960;28;113234;-78
2023/03/31 06:26:14;;;;;;;4.18;1.40;;;;;;;14.20;61.49;99533.72;4939366;28;125111;-79
2023/03/31 06:28:42;;;;;;;7.03;1.55;;;;;;;14.21;61.52;99529.22;4952172;28;125986;-79
2023/03/31 06:31:18;;;;;;;4.75;1.42;;;;;;;14.21;61.53;99522.06;4961603;28;113329;-79
2023/03/31 06:33:45;;;;;;;7.50;1.65;;;;;;;14.21;61.50;99538.03;4944646;28;113745;-80
2023/03/31 06:36:15;;;;;;;7.50;1.52;;;;;;;14.21;61.39;99532.72;4939080;28;123898;-79
2023/03/31 06:38:43;;;;;;;5.53;1.52;;;;;;;14.23;61.62;99519.28;4926657;28;121747;-79
2023/03/31 06:41:12;;;;;;;6.38;1.70;;;;;;;14.23;61.64;99523.78;4949866;28;113314;-79
2023/03/31 06:43:40;;;;;;;6.47;1.50;;;;;;;14.20;61.57;99520.41;4949619;28;114968;-79
2023/03/31 06:46:07;;;;;;;5.18;1.50;;;;;;;14.20;61.58;99508.88;4946845;28;124221;-79
2023/03/31 06:48:35;;;;;;;9.60;1.70;;;;;;;14.21;61.67;99499.94;4947304;28;124299;-79
2023/03/31 06:51:05;;;;;;;5.43;1.50;;;;;;;14.21;61.79;99498.09;4956843;28;114755;-79
2023/03/31 06:53:33;;;;;;;3.47;1.15;;;;;;;14.22;61.93;99498.94;4945016;28;112758;-79
2023/03/31 06:56:00;;;;;;;9.50;1.90;;;;;;;14.24;61.80;99489.03;4935348;28;124146;-79
2023/03/31 06:58:28;;;;;;;7.30;1.40;;;;;;;14.26;61.66;99491.53;4963361;28;122690;-79
2023/03/31 07:01:00;;;;;;;5.65;1.48;;;;;;;14.24;61.64;99478.38;4939914;28;115708;-79
2023/03/31 07:03:29;;;;;;;4.57;1.40;;;;;;;14.23;61.82;99470.53;4941620;28;114305;-78
2023/03/31 07:05:56;;;;;;;3.63;1.08;;;;;;;14.21;61.59;99460.81;4941648;28;124263;-79
2023/03/31 07:08:23;;;;;;;7.15;1.45;;;;;;;14.21;61.59;99455.50;4956481;28;124797;-79
2023/03/31 07:10:57;;;;;;;7.25;1.50;;;;;;;14.23;61.66;99465.19;4924067;28;114455;-79
2023/03/31 07:13:25;;;;;;;4.85;1.70;;;;;;;14.23;61.65;99471.34;4920714;28;114472;-79
2023/03/31 07:15:52;;;;;;;7.95;1.73;;;;;;;14.24;61.81;99459.75;4954232;28;124115;-79
2023/03/31 07:18:20;;;;;;;7.30;1.73;;;;;;;14.26;61.83;99475.56;4935572;28;126045;-78
2023/03/31 07:20:49;;;;;;;6.57;1.63;;;;;;;14.25;61.84;99484.53;4928958;28;113926;-79
2023/03/31 07:23:17;;;;;;;6.97;1.80;;;;;;;14.24;61.90;99483.72;4940406;28;114522;-78
2023/03/31 07:25:45;;;;;;;6.28;1.88;;;;;;;14.24;61.96;99483.72;4920590;28;123567;-79
2023/03/31 07:28:12;;;;;;;6.88;1.50;;;;;;;14.23;62.00;99481.16;4954489;28;123259;-79
2023/03/31 07:30:40;;;;;;;9.18;2.10;;;;;;;14.24;61.76;99482.84;4952073;28;115949;-79
2023/03/31 07:33:07;;;;;;;6.97;1.80;;;;;;;14.27;62.08;99477.28;4950084;28;112918;-80
2023/03/31 07:35:39;;;;;;;10.55;1.98;;;;;;;14.28;62.17;99478.94;4958950;28;124313;-79
2023/03/31 07:38:09;;;;;;;8.43;2.20;;;;;;;14.29;62.13;99485.97;4920303;28;123119;-79
2023/03/31 07:40:37;;;;;;;8.00;1.90;;;;;;;14.31;62.08;99478.72;4943034;28;114233;-80
2023/03/31 07:43:05;;;;;;;11.25;2.03;;;;;;;14.33;62.22;99476.75;4944655;28;113914;-79
2023/03/31 07:45:33;;;;;;;10.68;2.15;;;;;;;14.36;62.26;99460.53;4942320;28;123173;-79
2023/03/31 07:48:00;;;;;;;7.93;1.95;;;;;;;14.38;62.31;99474.56;4938573;28;122874;-81
2023/03/31 07:50:27;;;;;;;8.13;2.00;;;;;;;14.39;62.16;99460.25;4946491;28;114932;-80
2023/03/31 07:52:56;;;;;;;9.73;1.77;;;;;;;14.43;62.36;99461.72;4941065;28;114814;-79
2023/03/31 07:55:25;;;;;;;9.27;1.80;;;;;;;14.45;62.37;99458.91;4920847;28;123937;-80
2023/03/31 07:57:52;;;;;;;10.73;2.47;;;;;;;14.46;62.50;99450.78;4966312;28;124597;-80
2023/03/31 08:00:20;;;;;;;8.50;2.00;;;;;;;14.50;62.45;99452.22;4943343;28;114558;-81
2023/03/31 08:02:47;;;;;;;7.60;2.17;;;;;;;14.52;62.60;99439.66;4926557;28;114787;-79
2023/03/31 08:05:16;;;;;;;12.35;2.08;;;;;;;14.57;62.40;99436.59;4903437;28;124270;-81
2023/03/31 08:07:46;;;;;;;8.20;1.90;;;;;;;14.58;62.53;99439.16;4938389;28;123501;-80
2023/03/31 08:10:17;;;;;;;5.53;1.65;;;;;;;14.59;62.17;99440.81;4943619;28;113478;-79
2023/03/31 08:12:44;;;;;;;8.82;1.67;;;;;;;14.60;62.10;99437.19;4933451;28;114497;-79
2023/03/31 08:15:12;;;;;;;6.32;1.65;;;;;;;14.62;61.99;99436.22;4926917;28;123977;-81
2023/03/31 08:17:39;;;;;;;7.10;1.50;;;;;;;14.63;61.98;99424.59;4935463;28;123801;-82
2023/03/31 08:20:09;;;;;;;4.45;1.30;;;;;;;14.63;61.84;99419.25;4925398;28;116614;-80
2023/03/31 08:22:37;;;;;;;5.57;1.30;;;;;;;14.63;61.83;99424.59;4926304;28;114839;-82
2023/03/31 08:25:07;;;;;;;3.25;1.35;;;;;;;14.64;61.84;99415.63;4924874;28;122230;-80
2023/03/31 08:27:36;;;;;;;5.18;1.60;;;;;;;14.68;61.87;99422.38;4908076;28;123817;-80
2023/03/31 08:30:05;;;;;;;5.97;1.88;;;;;;;14.72;61.89;99429.97;4920985;28;112512;-80
2023/03/31 08:32:34;;;;;;;10.23;2.17;;;;;;;14.76;61.89;99414.56;4921724;28;113719;-80
2023/03/31 08:35:01;;;;;;;6.32;2.17;;;;;;;14.81;62.11;99417.69;4919622;28;123784;-79
2023/03/31 08:37:28;;;;;;;7.78;2.15;;;;;;;14.86;61.92;99414.63;4924103;28;124772;-80
2023/03/31 08:39:56;;;;;;;11.20;2.17;;;;;;;14.90;61.99;99416.91;4941591;28;114210;-79
2023/03/31 08:42:30;;;;;;;10.00;2.22;;;;;;;14.95;62.15;99420.00;4939655;28;114770;-80
2023/03/31 08:45:03;;;;;;;9.38;1.88;;;;;;;15.02;62.15;99411.50;4942210;28;124595;-80
2023/03/31 08:47:35;;;;;;;9.70;2.05;;;;;;;15.08;62.25;99413.63;4947319;28;124085;-80
2023/03/31 08:50:26;;;;;;;10.43;2.20;;;;;;;15.13;62.26;99412.25;4945146;28;114542;-80
2023/03/31 08:53:21;;;;;;;6.90;1.90;;;;;;;15.19;62.20;99405.53;4944194;28;113516;-80
2023/03/31 08:55:50;;;;;;;7.40;1.90;;;;;;;15.25;62.04;99404.16;4935767;28;123484;-79
2023/03/31 08:58:43;;;;;;;11.48;2.05;;;;;;;15.28;62.00;99407.38;4919041;28;124790;-80
2023/03/31 09:01:32;;;;;;;14.88;2.35;;;;;;;15.33;62.15;99402.50;4935871;28;114095;-79
2023/03/31 09:04:35;;;;;;;12.10;2.10;;;;;;;15.38;62.16;99410.09;4942142;28;115178;-79
2023/03/31 09:07:14;;;;;;;12.68;2.28;;;;;;;15.42;62.16;99400.00;4946773;28;124666;-80
2023/03/31 09:09:50;;;;;;;11.35;2.47;;;;;;;15.46;62.01;99406.75;4918350;28;125544;-79
2023/03/31 09:12:23;;;;;;;15.07;2.75;;;;;;;15.52;62.16;99403.53;4947915;28;115382;-79
2023/03/31 09:15:00;;;;;;;10.40;2.60;;;;;;;15.58;62.10;99405.66;4936339;28;113845;-80
2023/03/31 09:17:43;;;;;;;11.85;2.85;;;;;;;15.66;62.14;99396.97;4947316;28;124616;-79
2023/03/31 09:20:23;;;;;;;10.55;2.53;;;;;;;15.68;62.04;99387.84;4928438;28;125444;-80
2023/03/31 09:23:15;;;;;;;11.45;2.72;;;;;;;15.70;61.95;99393.88;4924686;28;114275;-79
2023/03/31 09:25:43;;;;;;;9.52;2.60;;;;;;;15.73;61.86;99390.97;4946134;28;114092;-80
2023/03/31 09:28:36;;;;;;;12.05;2.90;;;;;;;15.76;61.82;99382.69;4944284;28;124591;-79
2023/03/31 09:31:14;;;;;;;9.80;2.40;;;;;;;15.81;61.75;99378.78;4940267;28;123587;-78
2023/03/31 09:33:45;;;;;;;10.20;2.80;;;;;;;15.83;62.06;99382.13;4940333;28;114483;-80
2023/03/31 09:36:18;;;;;;;12.07;2.50;;;;;;;15.87;61.72;99379.03;4935510;28;114285;-79
2023/03/31 09:38:45;;;;;;;14.27;2.78;;;;;;;15.91;61.52;99379.59;4930781;28;123393;-79
2023/03/31 09:41:15;;;;;;;9.75;2.47;;;;;;;15.94;61.51;99374.84;4956226;28;123393;-79
2023/03/31 09:43:44;;;;;;;16.08;2.90;;;;;;;16.01;61.50;99369.78;4942312;28;114309;-79
2023/03/31 09:46:21;;;;;;;11.32;2.60;;;;;;;16.09;61.24;99367.25;4935237;28;113759;-79
2023/03/31 09:49:01;;;;;;;11.13;3.00;;;;;;;16.17;61.14;99369.22;4947229;28;123930;-79
2023/03/31 09:51:33;;;;;;;11.30;2.83;;;;;;;16.23;61.20;99362.47;4927939;28;123740;-78
2023/03/31 09:54:13;;;;;;;12.07;2.40;;;;;;;16.33;61.18;99363.28;4930317;28;112279;-79
2023/03/31 09:56:40;;;;;;;9.35;2.60;;;;;;;16.41;60.94;99352.75;4943388;28;113473;-79
2023/03/31 09:59:17;;;;;;;9.68;2.38;;;;;;;16.48;60.42;99359.19;4933676;28;124981;-80
2023/03/31 10:01:46;;;;;;;15.73;2.78;;;;;;;16.55;60.43;99357.63;4929006;28;124670;-79
2023/03/31 10:04:22;;;;;;;8.50;2.60;;;;;;;16.61;60.14;99355.34;4921288;28;115997;-79
2023/03/31 10:06:52;;;;;;;12.50;2.30;;;;;;;16.67;59.67;99354.78;4928038;28;114135;-79
2023/03/31 10:09:25;;;;;;;8.68;2.13;;;;;;;16.69;59.56;99353.66;4900342;28;124987;-79
2023/03/31 10:12:04;;;;;;;10.98;2.65;;;;;;;16.73;58.99;99354.22;4928672;28;122563;-79
2023/03/31 10:14:39;;;;;;;12.13;2.67;;;;;;;16.75;58.83;99357.59;4928173;28;113726;-79
2023/03/31 10:17:14;;;;;;;10.57;2.30;;;;;;;16.76;58.87;99348.56;4929632;28;114879;-80
2023/03/31 10:19:55;;;;;;;12.60;2.35;;;;;;;16.78;58.48;99354.59;4918657;28;125520;-79
2023/03/31 10:22:22;;;;;;;10.07;2.05;;;;;;;16.78;58.34;99341.22;4925744;28;123915;-79
2023/03/31 10:24:51;;;;;;;11.30;2.63;;;;;;;16.78;58.14;99346.56;4937802;28;116046;-81
2023/03/31 10:27:24;;;;;;;8.40;2.22;;;;;;;16.78;57.97;99333.22;4933002;28;113250;-79
2023/03/31 10:29:57;;;;;;;10.98;2.50;;;;;;;16.79;57.63;99342.94;4949890;28;123727;-79
2023/03/31 10:32:27;;;;;;;12.15;2.70;;;;;;;16.80;57.61;99341.09;4932550;28;126076;-78
2023/03/31 10:34:57;;;;;;;10.13;2.40;;;;;;;16.80;57.74;99333.94;4922407;28;114596;-79
2023/03/31 10:37:27;;;;;;;9.63;2.28;;;;;;;16.85;57.57;99333.50;4925673;28;114710;-81
2023/03/31 10:40:13;;;;;;;9.27;2.20;;;;;;;16.86;57.63;99330.69;4949043;28;124592;-79
2023/03/31 10:42:45;;;;;;;12.20;2.53;;;;;;;16.89;57.42;99333.06;4929202;28;123337;-80
2023/03/31 10:45:24;;;;;;;8.20;2.33;;;;;;;16.92;57.35;99334.63;4922460;28;115282;-80
2023/03/31 10:48:04;;;;;;;8.63;2.13;;;;;;;16.93;57.16;99339.81;4910213;28;112299;-79
2023/03/31 10:50:34;;;;;;;8.25;1.95;;;;;;;16.90;56.80;99329.41;4946915;28;124240;-80
2023/03/31 10:53:09;;;;;;;8.35;1.95;;;;;;;16.88;56.61;99326.03;4953493;28;124562;-79
2023/03/31 10:56:05;;;;;;;8.57;2.10;;;;;;;16.89;56.65;99321.53;4932331;28;115146;-78
2023/03/31 10:59:01;;;;;;;9.70;1.53;;;;;;;16.89;56.66;99325.03;4923133;28;114728;-80
2023/03/31 11:01:53;;;;;;;9.88;1.90;;;;;;;16.95;56.41;99317.41;4925670;28;125629;-78
2023/03/31 11:04:27;;;;;;;9.75;2.25;;;;;;;17.01;56.61;99314.16;4922029;28;125013;-79
2023/03/31 11:07:19;;;;;;;6.97;1.65;;;;;;;17.05;56.38;99313.72;4917957;28;113960;-80
2023/03/31 11:10:02;;;;;;;6.97;1.83;;;;;;;17.10;56.52;99315.94;4940359;28;115412;-80
2023/03/31 11:12:52;;;;;;;9.02;2.00;;;;;;;17.13;56.29;99312.97;4934066;28;125310;-79
2023/03/31 11:15:22;;;;;;;6.55;1.60;;;;;;;17.17;56.23;99317.03;4918976;28;124824;-79
2023/03/31 11:18:11;;;;;;;7.47;2.00;;;;;;;17.21;56.27;99313.06;4919667;28;115084;-79
2023/03/31 11:20:56;;;;;;;9.57;2.08;;;;;;;17.22;56.15;99306.72;4926467;28;115020;-79
2023/03/31 11:23:40;;;;;;;6.05;1.92;;;;;;;17.25;55.98;99306.44;4944718;28;123539;-80
2023/03/31 11:26:28;;;;;;;7.95;1.95;;;;;;;17.26;56.17;99302.75;4910044;28;125042;-78
2023/03/31 11:29:29;;;;;;;9.48;2.05;;;;;;;17.34;55.84;99298.50;4947181;28;114294;-78
2023/03/31 11:32:26;;;;;;;9.52;1.80;;;;;;;17.37;55.50;99300.88;4931644;28;113703;-78
2023/03/31 11:35:17;;;;;;;9.18;1.90;;;;;;;17.36;55.54;99291.16;4911915;28;123533;-79
2023/03/31 11:37:56;;;;;;;8.27;1.85;;;;;;;17.32;55.21;99291.44;4932777;28;124235;-77
2023/03/31 11:40:33;;;;;;;8.38;1.80;;;;;;;17.30;55.44;99298.78;4946020;28;113340;-80
2023/03/31 11:43:26;;;;;;;9.73;1.80;;;;;;;17.26;55.43;99291.22;4944925;28;114141;-79
2023/03/31 11:46:00;;;;;;;7.45;2.15;;;;;;;17.24;55.42;99288.69;4941389;28;123533;-78
2023/03/31 11:48:40;;;;;;;10.23;2.50;;;;;;;17.22;55.62;99290.69;4930897;28;123671;-80
2023/03/31 11:51:23;;;;;;;9.77;2.17;;;;;;;17.23;55.41;99287.00;4930395;28;114345;-80